Terminal Aerodrome Forecast
Issued by NWS

Home | Current Version | Previous Version | Text Only | Print | Product List | Glossary Off
Versions: 1 2 3 4 5 6 7 8 9 10 11 12 13 14 15 16 17 18 19

000
FTUS43 KICT 291700
TAFCNU
TAF
KCNU 291739Z 2918/3018 VRB05KT P6SM SCT070 BKN120
     FM301200 VRB05KT P6SM BKN060 OVC100
     FM301500 VRB05KT P6SM VCSH SCT025 OVC035=

USA.gov is the U.S. government's official web portal to all federal, state and local government web resources and services.